Time;durP1;ratioP1;P1;durP2;ratioP2;P2;SDS_P1;SDS_P2;PMS_P1;PMS_P2;Temp;Humidity;BMP_temperature;BMP_pressure;BME280_temperature;BME280_humidity;BME280_pressure;Samples;Min_cycle;Max_cycle;Signal;HPM_P1;HPM_P2
2022/07/03 00:01:50;;;;;;;1.27;1.17;;;;;;;20.84;51.39;100975.53;4996025;28;20205;-84
2022/07/03 00:04:18;;;;;;;1.93;1.43;;;;;;;20.79;51.61;100975.97;4988341;28;20228;-85
2022/07/03 00:06:44;;;;;;;1.53;1.20;;;;;;;20.75;52.27;100977.31;4990303;28;20300;-84
2022/07/03 00:09:11;;;;;;;1.80;1.13;;;;;;;20.70;52.54;100982.34;4988041;28;20210;-83
2022/07/03 00:11:39;;;;;;;1.97;1.30;;;;;;;20.64;52.90;100980.22;4993528;28;20209;-83
2022/07/03 00:14:06;;;;;;;1.70;1.40;;;;;;;20.58;53.12;100976.31;4988124;28;20211;-84
2022/07/03 00:16:33;;;;;;;2.07;1.40;;;;;;;20.50;53.25;100975.38;4988617;28;20201;-84
2022/07/03 00:18:59;;;;;;;1.63;1.43;;;;;;;20.40;53.53;100960.06;4990919;28;20206;-83
2022/07/03 00:21:30;;;;;;;1.27;1.17;;;;;;;20.29;54.23;100957.53;4995075;28;20209;-84
2022/07/03 00:24:01;;;;;;;3.07;1.93;;;;;;;20.17;54.86;100961.44;4991109;28;20759;-84
2022/07/03 00:26:33;;;;;;;1.27;1.17;;;;;;;20.05;55.34;100963.53;4986654;28;20572;-84
2022/07/03 00:29:02;;;;;;;1.40;1.30;;;;;;;19.97;55.72;100963.41;4995583;28;20196;-85
2022/07/03 00:31:30;;;;;;;1.37;1.27;;;;;;;19.92;56.05;100962.16;4988889;28;21138;-85
2022/07/03 00:33:58;;;;;;;1.57;1.27;;;;;;;19.89;56.44;100960.59;5001934;28;20260;-85
2022/07/03 00:36:26;;;;;;;2.53;1.53;;;;;;;19.85;56.60;100961.06;4998895;28;20229;-85
2022/07/03 00:38:53;;;;;;;1.43;1.33;;;;;;;19.84;56.81;100949.41;4989260;28;20226;-85
2022/07/03 00:41:27;;;;;;;2.13;1.40;;;;;;;19.84;56.75;100948.53;4992076;28;20202;-85
2022/07/03 00:43:53;;;;;;;1.87;1.20;;;;;;;19.80;56.68;100949.84;4998467;28;20683;-85
2022/07/03 00:46:23;;;;;;;1.37;1.27;;;;;;;19.73;56.94;100950.41;4990673;28;20207;-85
2022/07/03 00:48:50;;;;;;;1.47;1.33;;;;;;;19.65;57.38;100949.47;4999527;28;20205;-85
2022/07/03 00:51:21;;;;;;;1.33;1.20;;;;;;;19.57;57.70;100952.91;4995271;28;20237;-84
2022/07/03 00:53:51;;;;;;;2.27;1.90;;;;;;;19.51;58.30;100952.66;5000399;28;20236;-85
2022/07/03 00:56:23;;;;;;;1.80;1.70;;;;;;;19.45;58.21;100947.81;4996613;28;20202;-84
2022/07/03 00:58:52;;;;;;;1.40;1.30;;;;;;;19.41;58.30;100941.84;4994198;28;20206;-85
2022/07/03 01:01:20;;;;;;;2.93;1.40;;;;;;;19.40;58.66;100949.09;4990792;28;20752;-85
2022/07/03 01:03:54;;;;;;;2.60;1.63;;;;;;;19.37;58.81;100946.69;4996906;28;20215;-86
2022/07/03 01:06:23;;;;;;;1.30;1.20;;;;;;;19.35;58.96;100948.66;4993365;28;20967;-85
2022/07/03 01:08:51;;;;;;;2.07;1.30;;;;;;;19.32;59.03;100946.28;4990185;28;20234;-84
2022/07/03 01:11:26;;;;;;;1.50;1.30;;;;;;;19.30;59.08;100942.03;4991672;28;20202;-84
2022/07/03 01:14:03;;;;;;;1.60;1.50;;;;;;;19.22;59.11;100950.84;4993875;28;20201;-84
2022/07/03 01:16:35;;;;;;;1.77;1.63;;;;;;;19.16;59.41;100945.19;4999324;28;20203;-84
2022/07/03 01:19:17;;;;;;;1.50;1.40;;;;;;;19.11;59.30;100939.38;5001754;28;20212;-84
2022/07/03 01:21:55;;;;;;;1.87;1.50;;;;;;;19.08;59.65;100937.81;4997666;28;20204;-84
2022/07/03 01:24:45;;;;;;;2.43;1.50;;;;;;;19.03;59.79;100935.53;4992698;28;20546;-85
2022/07/03 01:27:17;;;;;;;1.50;1.40;;;;;;;18.99;60.19;100936.81;4992751;28;20308;-84
2022/07/03 01:29:56;;;;;;;1.43;1.33;;;;;;;18.95;60.31;100942.66;4987131;28;20204;-85
2022/07/03 01:32:25;;;;;;;1.40;1.30;;;;;;;18.91;60.46;100935.84;4992658;28;20209;-84
2022/07/03 01:34:53;;;;;;;1.90;1.50;;;;;;;18.87;60.25;100934.41;4993666;28;20254;-84
2022/07/03 01:37:22;;;;;;;1.57;1.43;;;;;;;18.82;60.63;100925.91;4991184;28;20258;-83
2022/07/03 01:39:53;;;;;;;2.17;1.50;;;;;;;18.78;60.96;100922.66;4998109;28;20213;-84
2022/07/03 01:42:24;;;;;;;1.70;1.53;;;;;;;18.75;61.09;100924.78;4999555;28;20586;-85
2022/07/03 01:44:53;;;;;;;1.40;1.30;;;;;;;18.72;61.46;100920.53;4986024;28;20216;-84
2022/07/03 01:47:21;;;;;;;3.90;1.53;;;;;;;18.66;61.32;100921.94;4998695;28;20275;-85
2022/07/03 01:49:50;;;;;;;2.80;1.50;;;;;;;18.63;61.43;100922.22;4989849;28;20201;-85
2022/07/03 01:52:18;;;;;;;1.60;1.50;;;;;;;18.58;61.60;100927.16;4990729;28;20300;-84
2022/07/03 01:54:46;;;;;;;1.57;1.47;;;;;;;18.54;61.66;100920.34;4998414;28;20196;-84
2022/07/03 01:57:12;;;;;;;1.67;1.37;;;;;;;18.50;61.77;100918.94;4999252;28;20250;-84
2022/07/03 01:59:40;;;;;;;3.07;1.40;;;;;;;18.48;61.91;100920.06;4993725;28;20211;-84
2022/07/03 02:02:18;;;;;;;1.80;1.70;;;;;;;18.41;61.98;100917.09;4992869;28;20216;-84
2022/07/03 02:04:54;;;;;;;1.63;1.53;;;;;;;18.38;62.35;100911.97;4998000;28;20204;-84
2022/07/03 02:07:29;;;;;;;2.27;1.23;;;;;;;18.35;62.44;100914.94;4995482;28;20238;-85
2022/07/03 02:10:04;;;;;;;1.97;1.57;;;;;;;18.32;62.47;100912.53;5004095;28;20213;-85
2022/07/03 02:12:38;;;;;;;1.63;1.53;;;;;;;18.26;62.70;100913.09;4995768;28;20209;-85
2022/07/03 02:15:08;;;;;;;1.50;1.40;;;;;;;18.20;62.96;100913.66;4996392;28;20215;-84
2022/07/03 02:17:38;;;;;;;2.70;1.60;;;;;;;18.15;63.15;100913.22;5002271;28;20318;-84
2022/07/03 02:20:08;;;;;;;1.87;1.77;;;;;;;18.12;63.57;100910.78;5004624;28;20219;-84
2022/07/03 02:22:36;;;;;;;1.67;1.57;;;;;;;18.06;63.80;100912.22;4991261;28;20672;-84
2022/07/03 02:25:06;;;;;;;1.33;1.20;;;;;;;18.03;63.78;100913.34;4999402;28;20207;-85
2022/07/03 02:27:42;;;;;;;2.17;1.70;;;;;;;17.98;63.90;100910.19;4994634;28;20306;-85
2022/07/03 02:30:12;;;;;;;1.87;1.50;;;;;;;17.94;64.34;100919.56;4997395;28;20206;-84
2022/07/03 02:32:43;;;;;;;3.10;1.43;;;;;;;17.90;64.37;100912.75;4996502;28;20204;-85
2022/07/03 02:35:12;;;;;;;1.90;1.40;;;;;;;17.87;64.40;100907.63;4987651;28;20209;-85
2022/07/03 02:37:45;;;;;;;1.77;1.67;;;;;;;17.83;64.15;100900.81;4995019;28;20695;-85
2022/07/03 02:40:21;;;;;;;1.70;1.60;;;;;;;17.80;64.77;100903.78;5003302;28;20205;-85
2022/07/03 02:42:56;;;;;;;2.53;1.63;;;;;;;17.78;64.76;100894.13;4994494;28;20215;-84
2022/07/03 02:45:30;;;;;;;2.53;1.70;;;;;;;17.77;64.86;100900.50;5005969;28;20219;-84
2022/07/03 02:48:03;;;;;;;2.50;1.70;;;;;;;17.75;65.17;100899.78;5003190;28;20246;-83
2022/07/03 02:50:32;;;;;;;1.67;1.57;;;;;;;17.75;65.16;100907.84;4998007;28;20338;-84
2022/07/03 02:53:05;;;;;;;1.73;1.57;;;;;;;17.73;65.14;100899.94;4992233;28;20230;-84
2022/07/03 02:55:42;;;;;;;1.60;1.50;;;;;;;17.71;65.13;100907.31;5001483;28;20232;-85
2022/07/03 02:58:28;;;;;;;3.37;1.90;;;;;;;17.68;65.07;100912.97;4998312;28;20233;-84
2022/07/03 03:00:59;;;;;;;1.83;1.50;;;;;;;17.65;65.02;100907.84;5002495;28;20259;-85
2022/07/03 03:03:29;;;;;;;1.80;1.70;;;;;;;17.65;64.82;100907.84;5000060;28;20206;-84
2022/07/03 03:06:00;;;;;;;1.83;1.50;;;;;;;17.63;64.94;100907.09;5002564;28;20203;-84
2022/07/03 03:08:35;;;;;;;1.50;1.40;;;;;;;17.60;64.66;100910.03;4992548;28;20252;-85
2022/07/03 03:11:07;;;;;;;2.10;2.00;;;;;;;17.57;64.52;100902.22;5000863;28;20210;-84
2022/07/03 03:13:35;;;;;;;1.77;1.50;;;;;;;17.56;65.01;100909.47;4995910;28;20652;-84
2022/07/03 03:16:06;;;;;;;2.83;1.50;;;;;;;17.55;64.96;100907.78;4991183;28;20217;-84
2022/07/03 03:18:35;;;;;;;2.23;1.80;;;;;;;17.58;64.74;100902.09;5005203;28;20236;-84
2022/07/03 03:21:04;;;;;;;1.50;1.40;;;;;;;17.58;64.78;100904.78;4991844;28;20615;-84
2022/07/03 03:23:43;;;;;;;2.33;1.50;;;;;;;17.58;64.81;100902.09;5004584;28;20238;-84
2022/07/03 03:26:10;;;;;;;2.33;1.50;;;;;;;17.58;64.79;100890.47;4993675;28;20226;-84
2022/07/03 03:28:37;;;;;;;1.90;1.70;;;;;;;17.59;64.90;100898.41;5003684;28;20233;-84
2022/07/03 03:31:08;;;;;;;1.67;1.57;;;;;;;17.60;64.91;100899.28;4988463;28;20229;-84
2022/07/03 03:33:38;;;;;;;2.67;1.70;;;;;;;17.57;64.75;100897.69;4993149;28;20205;-84
2022/07/03 03:36:06;;;;;;;1.67;1.33;;;;;;;17.56;64.73;100892.44;5001429;28;20587;-84
2022/07/03 03:38:33;;;;;;;2.80;1.57;;;;;;;17.56;65.11;100887.06;4998417;28;20247;-83
2022/07/03 03:41:00;;;;;;;2.80;1.80;;;;;;;17.54;65.12;100889.91;4989411;28;20653;-84
2022/07/03 03:43:26;;;;;;;2.00;1.70;;;;;;;17.51;65.28;100882.09;4990796;28;20208;-84
2022/07/03 03:45:53;;;;;;;2.63;1.73;;;;;;;17.51;65.48;100886.63;4993247;28;20221;-84
2022/07/03 03:48:21;;;;;;;2.60;1.77;;;;;;;17.51;65.70;100890.19;4987757;28;20590;-83
2022/07/03 03:50:48;;;;;;;1.83;1.40;;;;;;;17.51;65.66;100886.63;4993346;28;20578;-84
2022/07/03 03:53:16;;;;;;;3.53;1.73;;;;;;;17.50;65.84;100882.25;4992236;28;20691;-84
2022/07/03 03:55:54;;;;;;;2.43;1.37;;;;;;;17.48;65.64;100879.69;4987268;28;20584;-84
2022/07/03 03:58:21;;;;;;;4.47;1.80;;;;;;;17.49;66.08;100880.53;4985485;28;20323;-84
2022/07/03 04:00:47;;;;;;;3.07;1.70;;;;;;;17.47;65.93;100874.44;4996002;28;20222;-84
2022/07/03 04:03:14;;;;;;;4.97;1.70;;;;;;;17.43;65.81;100875.69;4993328;28;20213;-85
2022/07/03 04:05:41;;;;;;;1.77;1.67;;;;;;;17.38;66.15;100868.00;4989478;28;20218;-84
2022/07/03 04:08:08;;;;;;;2.03;1.63;;;;;;;17.34;66.41;100867.44;4986955;28;20245;-85
2022/07/03 04:10:35;;;;;;;2.27;1.73;;;;;;;17.32;66.61;100871.25;4988712;28;20218;-84
2022/07/03 04:13:01;;;;;;;2.27;1.80;;;;;;;17.29;66.71;100872.38;4983188;28;20202;-84
2022/07/03 04:15:28;;;;;;;2.40;1.50;;;;;;;17.30;67.13;100876.78;4990654;28;20216;-84
2022/07/03 04:17:54;;;;;;;1.80;1.70;;;;;;;17.31;67.19;100867.72;4981991;28;20237;-84
2022/07/03 04:20:21;;;;;;;2.83;2.00;;;;;;;17.32;67.43;100873.94;4999329;28;20225;-84
2022/07/03 04:22:50;;;;;;;1.50;1.40;;;;;;;17.33;67.52;100876.50;4988735;28;20297;-85
2022/07/03 04:25:16;;;;;;;2.17;1.50;;;;;;;17.35;67.74;100869.16;4992536;28;20211;-84
2022/07/03 04:27:43;;;;;;;2.80;1.80;;;;;;;17.38;67.66;100869.88;4990280;28;20703;-84
2022/07/03 04:30:11;;;;;;;1.83;1.73;;;;;;;17.39;67.80;100860.78;4998784;28;20221;-84
2022/07/03 04:32:38;;;;;;;3.47;1.80;;;;;;;17.40;67.55;100863.34;4989742;28;20594;-84
2022/07/03 04:35:05;;;;;;;2.97;1.50;;;;;;;17.42;67.42;100857.81;4997625;28;20213;-84
2022/07/03 04:37:32;;;;;;;2.80;1.70;;;;;;;17.44;67.16;100867.47;4995194;28;20734;-85
2022/07/03 04:40:00;;;;;;;1.77;1.57;;;;;;;17.47;66.97;100869.03;5004095;28;20215;-85
2022/07/03 04:42:26;;;;;;;1.97;1.43;;;;;;;17.49;67.08;100864.38;4993520;28;20218;-85
2022/07/03 04:44:53;;;;;;;1.73;1.63;;;;;;;17.54;67.27;100870.22;5000834;28;20218;-84
2022/07/03 04:47:20;;;;;;;2.17;1.53;;;;;;;17.60;67.01;100866.97;5003405;28;20236;-85
2022/07/03 04:49:47;;;;;;;1.67;1.47;;;;;;;17.63;66.93;100867.53;4987389;28;20223;-84
2022/07/03 04:52:14;;;;;;;1.63;1.50;;;;;;;17.70;67.14;100870.59;4985795;28;20205;-84
2022/07/03 04:54:40;;;;;;;2.13;1.70;;;;;;;17.76;67.16;100864.63;4993217;28;20213;-84
2022/07/03 04:57:08;;;;;;;1.70;1.53;;;;;;;17.83;67.21;100863.09;4990811;28;20232;-85
2022/07/03 04:59:34;;;;;;;1.50;1.33;;;;;;;17.89;67.02;100862.53;4994504;28;20292;-85
2022/07/03 05:02:01;;;;;;;1.33;1.20;;;;;;;17.95;66.92;100863.81;4998360;28;20196;-85
2022/07/03 05:04:28;;;;;;;1.30;1.20;;;;;;;18.02;66.45;100864.97;4996337;28;20216;-84
2022/07/03 05:06:54;;;;;;;2.33;1.10;;;;;;;18.11;65.75;100860.56;4996134;28;20225;-83
2022/07/03 05:09:21;;;;;;;1.20;1.10;;;;;;;18.18;64.51;100853.63;4990831;28;20853;-84
2022/07/03 05:11:48;;;;;;;1.43;1.17;;;;;;;18.29;63.14;100840.00;4994998;28;20253;-84
2022/07/03 05:14:22;;;;;;;1.20;1.00;;;;;;;18.44;61.89;100843.16;4995048;28;20212;-84
2022/07/03 05:16:48;;;;;;;1.10;1.00;;;;;;;18.58;60.71;100843.56;4998073;28;20234;-84
2022/07/03 05:19:15;;;;;;;1.67;0.90;;;;;;;18.74;59.82;100843.00;4989188;28;20208;-84
2022/07/03 05:21:41;;;;;;;1.97;0.93;;;;;;;18.92;59.06;100840.38;4989909;28;20672;-83
2022/07/03 05:24:08;;;;;;;1.00;0.90;;;;;;;19.07;58.40;100844.31;4990297;28;20224;-83
2022/07/03 05:26:34;;;;;;;1.30;1.20;;;;;;;19.25;57.52;100844.41;4992680;28;20669;-83
2022/07/03 05:29:01;;;;;;;1.13;1.03;;;;;;;19.41;57.19;100842.75;4995543;28;20225;-83
2022/07/03 05:31:29;;;;;;;1.03;0.93;;;;;;;19.57;56.38;100841.28;4995474;28;20670;-83
2022/07/03 05:33:55;;;;;;;1.20;1.10;;;;;;;19.71;55.87;100838.91;4995854;28;20205;-83
2022/07/03 05:36:22;;;;;;;1.53;1.00;;;;;;;19.87;55.42;100843.69;4998161;28;20584;-83
2022/07/03 05:41:32;;;;;;;1.47;1.10;;;;;;;20.21;54.45;100843.00;5000894;28;20213;-83
2022/07/03 05:43:59;;;;;;;1.50;0.90;;;;;;;20.38;54.06;100836.78;5000375;28;20225;-83
2022/07/03 05:46:26;;;;;;;2.73;1.27;;;;;;;20.57;53.61;100842.00;4997000;28;20226;-84
2022/07/03 05:48:53;;;;;;;2.03;1.07;;;;;;;20.74;52.96;100843.00;5003245;28;20307;-84
2022/07/03 05:51:20;;;;;;;1.50;1.20;;;;;;;20.91;52.55;100843.94;4993631;28;20208;-84
2022/07/03 05:53:46;;;;;;;2.03;1.10;;;;;;;21.09;52.02;100839.31;4996942;28;20675;-85
2022/07/03 05:56:13;;;;;;;1.60;0.90;;;;;;;21.29;51.43;100848.09;4999999;28;20213;-84
2022/07/03 05:58:41;;;;;;;0.87;0.87;;;;;;;21.47;50.35;100846.16;5001974;28;20842;-85
2022/07/03 06:01:07;;;;;;;2.10;0.97;;;;;;;21.65;50.13;100852.34;4995152;28;20680;-85
2022/07/03 06:03:34;;;;;;;1.00;0.98;;;;;;;21.84;49.26;100848.50;4994266;28;20690;-84
2022/07/03 06:06:02;;;;;;;2.25;1.02;;;;;;;22.03;48.46;100848.25;4994477;28;20202;-84
2022/07/03 06:08:28;;;;;;;1.45;1.00;;;;;;;22.21;47.88;100852.69;4998685;28;20614;-84
2022/07/03 06:10:55;;;;;;;1.75;0.90;;;;;;;22.38;47.58;100849.81;4999041;28;20203;-84
2022/07/03 06:13:22;;;;;;;1.20;1.10;;;;;;;22.59;46.87;100851.16;5004595;28;20857;-83
2022/07/03 06:15:49;;;;;;;1.23;1.13;;;;;;;22.79;46.56;100849.81;4997169;28;20597;-84
2022/07/03 06:18:15;;;;;;;1.08;1.00;;;;;;;22.99;46.36;100848.44;5005041;28;20234;-84
2022/07/03 06:20:42;;;;;;;1.35;0.85;;;;;;;23.18;45.70;100855.34;4994951;28;20209;-84
2022/07/03 06:23:10;;;;;;;1.58;0.90;;;;;;;23.39;45.26;100854.78;4996845;28;20203;-84
2022/07/03 06:25:36;;;;;;;1.45;0.98;;;;;;;23.59;44.92;100855.25;4996030;28;20207;-84
2022/07/03 06:28:03;;;;;;;2.75;1.10;;;;;;;23.77;44.21;100855.84;4997701;28;20237;-85
2022/07/03 06:30:29;;;;;;;1.15;0.93;;;;;;;23.95;43.76;100852.88;5001196;28;20227;-84
2022/07/03 06:32:56;;;;;;;1.83;1.15;;;;;;;24.11;43.21;100847.31;4998326;28;20677;-84
2022/07/03 06:35:22;;;;;;;1.20;1.00;;;;;;;24.30;43.01;100856.91;4994843;28;20307;-85
2022/07/03 06:37:49;;;;;;;1.30;1.17;;;;;;;24.47;42.58;100866.66;5006178;28;20227;-84
2022/07/03 06:40:17;;;;;;;0.90;0.90;;;;;;;24.65;41.87;100867.19;5000133;28;20211;-84
2022/07/03 06:42:43;;;;;;;1.35;0.93;;;;;;;24.82;41.69;100859.72;5000476;28;20741;-85
2022/07/03 06:45:10;;;;;;;1.92;0.88;;;;;;;24.95;41.35;100859.09;5000982;28;20218;-84
2022/07/03 06:47:38;;;;;;;0.70;0.70;;;;;;;25.11;40.86;100867.13;4998535;28;20714;-84
2022/07/03 06:50:05;;;;;;;1.50;1.10;;;;;;;25.22;40.13;100863.94;4991244;28;20231;-84
2022/07/03 06:52:32;;;;;;;1.65;0.90;;;;;;;25.33;40.13;100860.75;4989279;28;20212;-84
2022/07/03 06:54:59;;;;;;;1.77;0.80;;;;;;;25.43;39.65;100864.06;4989803;28;20573;-85
2022/07/03 06:57:27;;;;;;;1.15;0.73;;;;;;;25.55;39.65;100875.31;4990253;28;20262;-84
2022/07/03 06:59:53;;;;;;;1.00;0.90;;;;;;;25.70;39.97;100878.91;4989459;28;20578;-85
2022/07/03 07:02:20;;;;;;;2.88;1.00;;;;;;;25.80;39.31;100884.91;4987165;28;20812;-84
2022/07/03 07:04:46;;;;;;;1.60;0.93;;;;;;;25.85;38.68;100881.59;4988119;28;20301;-84
2022/07/03 07:07:13;;;;;;;1.10;1.00;;;;;;;25.82;38.50;100884.72;4985881;28;20236;-84
2022/07/03 07:09:40;;;;;;;1.02;0.85;;;;;;;25.81;39.10;100877.56;4988365;28;20229;-84
2022/07/03 07:12:07;;;;;;;1.40;1.13;;;;;;;25.86;39.63;100884.16;4993638;28;20321;-84
2022/07/03 07:14:35;;;;;;;1.10;1.00;;;;;;;25.93;39.03;100884.25;4983587;28;20208;-84
2022/07/03 07:17:01;;;;;;;2.38;1.00;;;;;;;25.93;39.22;100890.53;4985705;28;20234;-84
2022/07/03 07:19:28;;;;;;;2.58;1.00;;;;;;;25.87;38.81;100893.19;4992832;28;20203;-84
2022/07/03 07:21:54;;;;;;;1.05;0.98;;;;;;;25.79;39.39;100885.13;4995507;28;20673;-84
2022/07/03 07:24:21;;;;;;;0.85;0.82;;;;;;;25.79;39.97;100887.84;4995903;28;20204;-85
2022/07/03 07:26:47;;;;;;;1.05;0.95;;;;;;;25.85;39.97;100881.59;4991993;28;20203;-84
2022/07/03 07:29:14;;;;;;;1.60;0.88;;;;;;;25.89;40.28;100889.22;5003114;28;20233;-85
2022/07/03 07:31:42;;;;;;;2.15;1.05;;;;;;;25.92;39.83;100888.84;4987985;28;20238;-85
2022/07/03 07:34:09;;;;;;;1.20;1.08;;;;;;;25.94;40.02;100881.31;4991119;28;20207;-85
2022/07/03 07:36:35;;;;;;;2.08;0.80;;;;;;;26.01;40.49;100875.94;4996963;28;20207;-85
2022/07/03 07:39:02;;;;;;;1.23;1.08;;;;;;;26.09;40.60;100877.72;4996282;28;20207;-85
2022/07/03 07:41:28;;;;;;;1.00;0.88;;;;;;;26.19;40.66;100867.31;4993275;28;20216;-84
2022/07/03 07:43:55;;;;;;;2.10;1.20;;;;;;;26.30;40.03;100875.03;4989659;28;20212;-85
2022/07/03 07:46:21;;;;;;;1.23;1.10;;;;;;;26.39;39.68;100873.84;4996676;28;20771;-86
2022/07/03 07:48:49;;;;;;;1.70;0.90;;;;;;;26.50;39.73;100881.56;4997977;28;20672;-85
2022/07/03 07:51:16;;;;;;;1.05;1.00;;;;;;;26.58;39.61;100886.03;4991022;28;20674;-84
2022/07/03 07:53:43;;;;;;;1.15;0.95;;;;;;;26.64;39.19;100885.25;4991629;28;20203;-85
2022/07/03 07:56:09;;;;;;;1.00;1.00;;;;;;;26.67;39.04;100878.56;4992934;28;20207;-85
2022/07/03 07:58:36;;;;;;;3.03;1.10;;;;;;;26.67;39.13;100884.88;4990881;28;20642;-84
2022/07/03 08:06:31;;;;;;;1.05;0.95;;;;;;;26.70;38.59;100884.44;4996467;28;20288;-84
2022/07/03 08:08:58;;;;;;;1.45;1.15;;;;;;;26.69;38.57;100876.47;4996267;28;20231;-85
2022/07/03 08:11:24;;;;;;;1.55;1.15;;;;;;;26.67;38.44;100881.28;4998589;28;20219;-85
2022/07/03 08:13:51;;;;;;;1.02;1.00;;;;;;;26.71;38.79;100885.28;5005026;28;20210;-85
2022/07/03 08:16:18;;;;;;;1.17;1.05;;;;;;;26.74;38.67;100887.63;4990900;28;20211;-85
2022/07/03 08:18:44;;;;;;;1.27;0.98;;;;;;;26.82;38.89;100887.50;4982095;28;20362;-85
2022/07/03 08:21:11;;;;;;;2.58;1.10;;;;;;;26.91;38.61;100884.41;4982672;28;20211;-85
2022/07/03 08:23:39;;;;;;;1.10;1.00;;;;;;;27.01;38.18;100883.28;4983107;28;20707;-84
2022/07/03 08:26:06;;;;;;;1.73;1.17;;;;;;;27.06;38.57;100880.78;4982142;28;20208;-85
2022/07/03 08:28:32;;;;;;;2.67;1.20;;;;;;;27.20;38.88;100885.31;4984081;28;20235;-85
2022/07/03 08:30:59;;;;;;;1.58;0.90;;;;;;;27.37;38.40;100878.50;4981019;28;20231;-85
2022/07/03 08:33:25;;;;;;;0.90;0.90;;;;;;;27.50;38.16;100884.03;4984648;28;20212;-86
2022/07/03 08:35:52;;;;;;;2.25;1.00;;;;;;;27.64;37.66;100887.69;4985018;28;20590;-85
2022/07/03 08:38:19;;;;;;;0.98;0.90;;;;;;;27.78;36.57;100896.81;4988167;28;20606;-86
2022/07/03 08:40:50;;;;;;;1.60;1.00;;;;;;;27.87;35.95;100888.25;4990332;28;20203;-85
2022/07/03 08:43:18;;;;;;;0.90;0.90;;;;;;;27.97;35.89;100891.44;4984591;28;20203;-85
2022/07/03 08:45:45;;;;;;;1.67;1.10;;;;;;;28.14;36.00;100889.16;4983181;28;20203;-85
2022/07/03 08:48:13;;;;;;;1.13;0.90;;;;;;;28.33;36.16;100890.31;4993275;28;20317;-86
2022/07/03 08:50:42;;;;;;;2.55;0.90;;;;;;;28.51;35.40;100884.22;4984861;28;20230;-85
2022/07/03 08:53:11;;;;;;;2.50;1.00;;;;;;;28.69;35.45;100889.94;4984207;28;20290;-85
2022/07/03 08:55:38;;;;;;;1.27;0.90;;;;;;;28.83;34.65;100888.94;4987131;28;20211;-84
2022/07/03 08:58:09;;;;;;;1.38;0.90;;;;;;;28.93;34.11;100896.72;4990499;28;21303;-85
2022/07/03 09:00:36;;;;;;;3.15;1.30;;;;;;;29.06;34.32;100893.97;4991025;28;20192;-83
2022/07/03 09:03:04;;;;;;;2.15;1.10;;;;;;;29.18;33.69;100889.56;4991127;28;20211;-85
2022/07/03 09:05:31;;;;;;;2.15;1.00;;;;;;;29.24;33.68;100887.84;4990390;28;20290;-84
2022/07/03 09:08:00;;;;;;;2.28;1.02;;;;;;;29.30;33.82;100887.00;4982588;28;20227;-84
2022/07/03 09:10:26;;;;;;;1.33;1.02;;;;;;;29.36;33.36;100887.00;4984406;28;20228;-85
2022/07/03 09:12:53;;;;;;;1.25;1.15;;;;;;;29.43;33.63;100887.00;4993105;28;20207;-86
2022/07/03 09:15:21;;;;;;;1.17;1.00;;;;;;;29.49;33.31;100888.88;4984176;28;20211;-86
2022/07/03 09:17:59;;;;;;;1.10;1.00;;;;;;;29.56;33.72;100892.44;4988744;28;20239;-85
2022/07/03 09:20:31;;;;;;;2.38;1.00;;;;;;;29.60;33.14;100881.88;4985045;28;20779;-85
2022/07/03 09:23:12;;;;;;;2.33;1.10;;;;;;;29.64;33.13;100880.41;4979214;28;20611;-85
2022/07/03 09:25:53;;;;;;;2.88;1.10;;;;;;;29.73;33.42;100881.00;4988038;28;20655;-84
2022/07/03 09:28:21;;;;;;;1.10;1.00;;;;;;;29.77;32.81;100882.25;4989712;28;20317;-84
2022/07/03 09:31:01;;;;;;;2.60;1.08;;;;;;;29.77;32.28;100879.50;4987197;28;20228;-85
2022/07/03 09:33:28;;;;;;;1.40;0.77;;;;;;;29.81;32.31;100889.00;4988061;28;20208;-85
2022/07/03 09:35:56;;;;;;;1.75;0.90;;;;;;;29.87;32.47;100890.88;4987691;28;20217;-85
2022/07/03 09:38:23;;;;;;;3.28;0.95;;;;;;;29.93;31.47;100887.25;4989189;28;20222;-85
2022/07/03 09:40:51;;;;;;;0.82;0.75;;;;;;;29.97;31.56;100888.50;4988595;28;20203;-85
2022/07/03 09:43:23;;;;;;;1.05;0.95;;;;;;;29.98;30.74;100885.56;4985999;28;20199;-85
2022/07/03 09:45:52;;;;;;;1.00;0.80;;;;;;;30.02;30.92;100888.72;4999080;28;20649;-85
2022/07/03 09:48:31;;;;;;;2.97;1.10;;;;;;;30.08;30.35;100893.34;5000105;28;20234;-85
2022/07/03 09:51:27;;;;;;;0.77;0.77;;;;;;;30.16;29.82;100892.22;5000265;28;20243;-85
2022/07/03 09:53:56;;;;;;;3.28;0.60;;;;;;;30.15;29.82;100894.13;4934947;29;20584;-85
2022/07/03 09:56:25;;;;;;;1.52;0.63;;;;;;;30.18;29.29;100890.97;4979336;28;20761;-85
2022/07/03 09:59:07;;;;;;;1.73;0.70;;;;;;;30.21;29.90;100893.28;5001846;28;20245;-85
2022/07/03 10:01:33;;;;;;;0.98;0.80;;;;;;;30.24;30.29;100892.00;4997277;28;20882;-85
2022/07/03 10:04:13;;;;;;;1.98;0.90;;;;;;;30.27;30.30;100883.31;4989026;28;20204;-86
2022/07/03 10:06:54;;;;;;;1.48;0.93;;;;;;;30.34;30.15;100887.69;4991474;28;20214;-84
2022/07/03 10:09:24;;;;;;;0.88;0.73;;;;;;;30.41;30.65;100884.06;4987361;28;20206;-85
2022/07/03 10:11:51;;;;;;;0.70;0.70;;;;;;;30.51;30.42;100874.25;4985354;28;20284;-85
2022/07/03 10:14:19;;;;;;;3.35;0.93;;;;;;;30.57;30.19;100873.41;4980762;28;20675;-85
2022/07/03 10:16:45;;;;;;;2.17;1.00;;;;;;;30.58;29.33;100874.25;4986681;28;20203;-84
2022/07/03 10:19:18;;;;;;;1.30;0.90;;;;;;;30.57;29.20;100873.41;4986795;28;20203;-85
2022/07/03 10:21:50;;;;;;;1.27;0.50;;;;;;;30.61;29.07;100879.31;4993416;28;20206;-85
2022/07/03 10:24:18;;;;;;;1.63;0.70;;;;;;;30.69;29.70;100882.63;4988209;28;20206;-85
2022/07/03 10:26:45;;;;;;;2.70;1.00;;;;;;;30.81;29.55;100880.00;4991382;28;20199;-85
2022/07/03 10:29:15;;;;;;;2.13;0.80;;;;;;;30.91;29.01;100877.56;4990615;28;20214;-85
2022/07/03 10:31:44;;;;;;;1.50;0.90;;;;;;;30.95;29.25;100875.22;4983410;28;20757;-85
2022/07/03 10:34:11;;;;;;;1.48;0.77;;;;;;;30.96;29.20;100877.75;4982524;28;20213;-85
2022/07/03 10:36:40;;;;;;;1.02;0.82;;;;;;;31.01;28.44;100866.03;4982885;28;20199;-85
2022/07/03 10:39:09;;;;;;;1.00;0.77;;;;;;;31.06;28.82;100866.22;4980479;28;20214;-85
2022/07/03 10:47:40;;;;;;;1.00;0.70;;;;;;;31.14;28.74;100870.63;4980096;28;20354;-85
2022/07/03 10:50:11;;;;;;;0.88;0.73;;;;;;;31.11;28.87;100863.66;4988574;28;20223;-85
2022/07/03 10:52:39;;;;;;;0.82;0.70;;;;;;;31.14;28.42;100865.13;4984686;28;20203;-85
2022/07/03 10:55:07;;;;;;;0.95;0.85;;;;;;;31.16;28.49;100860.25;4988405;28;20226;-84
2022/07/03 10:57:34;;;;;;;1.45;0.80;;;;;;;31.18;28.85;100863.59;4980863;28;21001;-84
2022/07/03 11:00:07;;;;;;;0.63;0.63;;;;;;;31.22;28.77;100851.06;4985416;28;20207;-84
2022/07/03 11:02:36;;;;;;;0.90;0.70;;;;;;;31.31;28.58;100856.06;4987386;28;20199;-85
2022/07/03 11:05:09;;;;;;;2.63;0.85;;;;;;;31.37;27.94;100859.78;4984264;28;20226;-85
2022/07/03 11:07:44;;;;;;;2.58;0.90;;;;;;;31.44;28.06;100855.06;4989289;28;20229;-84
2022/07/03 11:10:32;;;;;;;2.40;0.82;;;;;;;31.50;28.30;100851.41;4988103;28;20216;-84
2022/07/03 11:13:00;;;;;;;1.02;0.63;;;;;;;31.56;28.40;100844.13;4981850;28;20211;-84
2022/07/03 11:15:27;;;;;;;1.02;0.63;;;;;;;31.66;28.36;100848.06;4985954;28;20207;-85
2022/07/03 11:18:28;;;;;;;1.23;0.80;;;;;;;31.75;28.06;100849.41;4981812;28;20608;-84
2022/07/03 11:21:25;;;;;;;1.00;0.70;;;;;;;31.84;27.52;100838.94;4922041;29;20292;-84
2022/07/03 11:24:15;;;;;;;1.42;1.00;;;;;;;31.92;27.95;100841.34;4985904;28;20212;-84
2022/07/03 11:26:41;;;;;;;0.70;0.70;;;;;;;31.99;27.70;100846.78;4984820;28;20203;-84
2022/07/03 11:29:08;;;;;;;1.05;0.70;;;;;;;32.07;27.52;100846.44;4982029;28;20698;-83
2022/07/03 11:31:34;;;;;;;0.70;0.70;;;;;;;32.16;27.83;100849.72;4982420;28;20242;-84
2022/07/03 11:34:01;;;;;;;6.38;0.90;;;;;;;32.18;27.09;100848.41;4976911;28;20206;-83
2022/07/03 11:36:30;;;;;;;1.60;0.90;;;;;;;32.15;27.53;100848.03;4981803;28;20207;-83
2022/07/03 11:39:08;;;;;;;2.75;0.80;;;;;;;32.13;27.17;100841.91;4981279;28;20227;-84
2022/07/03 11:41:46;;;;;;;1.50;0.77;;;;;;;32.09;27.52;100844.28;4980515;28;20638;-85
2022/07/03 11:44:19;;;;;;;1.67;0.85;;;;;;;32.02;27.25;100843.56;4979016;28;21246;-85
2022/07/03 11:46:49;;;;;;;2.05;0.80;;;;;;;31.94;27.42;100836.44;4986440;28;20211;-85
2022/07/03 11:49:18;;;;;;;3.00;0.82;;;;;;;31.92;27.20;100837.75;4986238;28;20257;-85